createdAt,value
2023-04-28T00:02:52.278Z,3.80
2023-04-28T00:05:57.707Z,3.63
2023-04-28T00:09:02.442Z,4.03
2023-04-28T00:12:07.445Z,4.05
2023-04-28T00:15:13.374Z,3.70
2023-04-28T00:18:17.860Z,3.90
2023-04-28T00:21:22.957Z,3.90
2023-04-28T00:24:27.672Z,3.67
2023-04-28T00:27:34.415Z,4.00
2023-04-28T00:30:38.729Z,3.53
2023-04-28T00:33:44.287Z,3.20
2023-04-28T00:36:48.837Z,3.55
2023-04-28T00:39:56.717Z,3.55
2023-04-28T00:43:01.586Z,2.92
2023-04-28T00:46:06.424Z,3.15
2023-04-28T00:49:11.250Z,3.50
2023-04-28T00:52:16.396Z,3.85
2023-04-28T00:55:22.596Z,3.40
2023-04-28T00:58:27.958Z,2.83
2023-04-28T01:01:33.496Z,3.33
2023-04-28T01:04:38.551Z,3.35
2023-04-28T01:07:43.811Z,2.90
2023-04-28T01:10:48.321Z,3.03
2023-04-28T01:14:09.635Z,4.00
2023-04-28T01:17:18.230Z,3.55
2023-04-28T01:20:22.919Z,3.22
2023-04-28T01:23:27.932Z,3.10
2023-04-28T01:26:32.698Z,2.78
2023-04-28T01:29:39.185Z,2.83
2023-04-28T01:32:43.856Z,2.97
2023-04-28T01:35:48.494Z,3.13
2023-04-28T01:38:54.994Z,3.05
2023-04-28T01:41:59.476Z,3.05
2023-04-28T01:45:05.274Z,2.95
2023-04-28T01:48:09.593Z,3.00
2023-04-28T01:51:14.270Z,3.05
2023-04-28T01:54:19.085Z,3.10
2023-04-28T01:57:24.088Z,3.22
2023-04-28T02:00:29.159Z,3.60
2023-04-28T02:03:34.208Z,3.53
2023-04-28T02:06:40.975Z,2.97
2023-04-28T02:09:46.334Z,2.95
2023-04-28T02:12:51.014Z,3.13
2023-04-28T02:15:55.804Z,3.58
2023-04-28T02:19:00.658Z,3.30
2023-04-28T02:22:06.145Z,3.00
2023-04-28T02:25:10.943Z,3.60
2023-04-28T02:28:16.360Z,3.45
2023-04-28T02:31:20.947Z,3.08
2023-04-28T02:34:31.139Z,2.97
2023-04-28T02:37:42.576Z,2.50
2023-04-28T02:40:47.341Z,3.35
2023-04-28T02:43:52.135Z,3.20
2023-04-28T02:46:56.640Z,3.35
2023-04-28T02:50:04.362Z,3.80
2023-04-28T02:53:08.891Z,3.40
2023-04-28T02:56:13.727Z,3.30
2023-04-28T02:59:18.625Z,3.53
2023-04-28T03:02:23.419Z,3.67
2023-04-28T03:05:28.399Z,3.22
2023-04-28T03:08:32.624Z,3.53
2023-04-28T03:11:37.669Z,3.42
2023-04-28T03:14:42.175Z,3.20
2023-04-28T03:17:47.658Z,3.60
2023-04-28T03:20:52.839Z,2.88
2023-04-28T03:23:57.256Z,3.90
2023-04-28T03:27:04.499Z,4.00
2023-04-28T03:30:10.420Z,3.42
2023-04-28T03:33:15.173Z,3.30
2023-04-28T03:36:19.807Z,3.58
2023-04-28T03:39:24.989Z,4.00
2023-04-28T03:42:29.354Z,3.72
2023-04-28T03:45:47.460Z,3.58
2023-04-28T03:48:53.322Z,3.75
2023-04-28T03:51:57.873Z,4.03
2023-04-28T03:55:03.581Z,3.92
2023-04-28T03:58:08.281Z,3.50
2023-04-28T04:01:12.754Z,3.88
2023-04-28T04:04:18.142Z,3.95
2023-04-28T04:07:23.511Z,4.00
2023-04-28T04:10:27.890Z,4.00
2023-04-28T04:13:32.753Z,3.70
2023-04-28T04:16:37.630Z,4.30
2023-04-28T04:19:43.316Z,3.35
2023-04-28T04:22:48.874Z,3.45
2023-04-28T04:25:53.262Z,3.80
2023-04-28T04:28:57.747Z,3.47
2023-04-28T04:32:02.257Z,4.32
2023-04-28T04:35:07.514Z,3.88
2023-04-28T04:38:13.667Z,3.92
2023-04-28T04:41:21.932Z,3.58
2023-04-28T04:44:29.865Z,3.97
2023-04-28T04:47:35.510Z,3.38
2023-04-28T04:50:41.262Z,3.90
2023-04-28T04:53:46.007Z,3.78
2023-04-28T04:56:51.315Z,3.75
2023-04-28T05:00:06.842Z,3.47
2023-04-28T05:03:12.776Z,3.95
2023-04-28T05:06:18.820Z,4.40
2023-04-28T05:09:26.872Z,4.30
2023-04-28T05:12:31.424Z,4.75
2023-04-28T05:15:35.825Z,4.35
2023-04-28T05:19:06.385Z,4.05
2023-04-28T05:22:12.148Z,5.03
2023-04-28T05:25:16.684Z,5.18
2023-04-28T05:28:22.244Z,5.00
2023-04-28T05:31:30.449Z,5.70
2023-04-28T05:34:35.830Z,6.32
2023-04-28T05:37:43.056Z,6.63
2023-04-28T05:40:48.104Z,6.30
2023-04-28T05:43:52.831Z,5.90
2023-04-28T05:46:57.601Z,6.00
2023-04-28T05:50:05.339Z,5.53
2023-04-28T05:53:09.940Z,6.07
2023-04-28T05:56:16.343Z,6.43
2023-04-28T05:59:21.029Z,5.28
2023-04-28T06:02:27.416Z,4.95
2023-04-28T06:05:34.284Z,5.07
2023-04-28T06:08:39.624Z,5.28
2023-04-28T06:11:43.996Z,5.25
2023-04-28T06:14:48.475Z,5.60
2023-04-28T06:17:53.952Z,5.22
2023-04-28T06:20:59.252Z,4.72
2023-04-28T06:24:04.023Z,4.90
2023-04-28T06:27:08.936Z,5.78
2023-04-28T06:30:23.221Z,5.50
2023-04-28T06:33:27.573Z,4.53
2023-04-28T06:36:32.964Z,4.13
2023-04-28T06:39:38.193Z,4.28
2023-04-28T06:42:42.829Z,5.25
2023-04-28T06:45:56.331Z,4.38
2023-04-28T06:49:03.069Z,5.30
2023-04-28T06:52:08.027Z,5.13
2023-04-28T06:55:19.747Z,5.07
2023-04-28T06:58:24.777Z,5.25
2023-04-28T07:01:29.878Z,5.10
2023-04-28T07:04:34.602Z,5.45
2023-04-28T07:07:39.447Z,6.40
2023-04-28T07:10:44.348Z,5.28
2023-04-28T07:13:51.580Z,5.55
2023-04-28T07:16:56.592Z,6.72
2023-04-28T07:20:01.157Z,7.82
2023-04-28T07:23:05.876Z,7.38
2023-04-28T07:26:11.785Z,6.95
2023-04-28T07:29:17.304Z,8.00
2023-04-28T07:32:22.033Z,8.43
2023-04-28T07:35:26.627Z,7.63
2023-04-28T07:38:41.573Z,8.07
2023-04-28T07:41:46.172Z,7.78
2023-04-28T07:44:50.606Z,7.57
2023-04-28T07:47:55.784Z,6.45
2023-04-28T07:51:00.167Z,6.68
2023-04-28T07:54:05.024Z,7.85
2023-04-28T07:57:10.960Z,6.38
2023-04-28T08:00:16.100Z,8.02
2023-04-28T08:03:21.483Z,7.68
2023-04-28T08:06:26.293Z,7.22
2023-04-28T08:09:31.153Z,6.38
2023-04-28T08:12:36.330Z,6.22
2023-04-28T08:15:40.815Z,6.32
2023-04-28T08:18:46.093Z,5.80
2023-04-28T08:21:51.020Z,6.57
2023-04-28T08:24:55.291Z,7.63
2023-04-28T08:28:00.261Z,7.07
2023-04-28T08:31:05.562Z,7.90
2023-04-28T08:34:09.992Z,10.30
2023-04-28T08:37:14.680Z,7.78
2023-04-28T08:40:19.187Z,7.18
2023-04-28T08:43:25.653Z,7.65
2023-04-28T08:46:31.055Z,10.07
2023-04-28T08:49:37.138Z,7.40
2023-04-28T08:52:43.476Z,6.93
2023-04-28T08:55:50.068Z,6.70
2023-04-28T08:58:55.854Z,7.20
2023-04-28T09:02:00.877Z,6.85
2023-04-28T09:05:12.122Z,8.68
2023-04-28T09:08:17.918Z,7.43
2023-04-28T09:11:23.599Z,6.10
2023-04-28T09:14:30.767Z,6.90
2023-04-28T09:17:52.160Z,9.30
2023-04-28T09:21:13.322Z,8.52
2023-04-28T09:24:40.806Z,8.13
2023-04-28T09:27:45.614Z,7.85
2023-04-28T09:30:50.731Z,7.57
2023-04-28T09:34:00.267Z,7.93
2023-04-28T09:37:16.954Z,7.80
2023-04-28T09:40:21.548Z,8.70
2023-04-28T09:43:34.774Z,8.40
2023-04-28T09:46:40.309Z,7.90
2023-04-28T09:49:56.307Z,8.85
2023-04-28T09:53:04.133Z,6.93
2023-04-28T09:56:09.825Z,9.18
2023-04-28T09:59:15.196Z,7.05
2023-04-28T10:05:29.507Z,6.65
2023-04-28T10:08:36.060Z,5.63
2023-04-28T10:11:40.793Z,7.57
2023-04-28T10:14:46.662Z,6.88
2023-04-28T10:17:51.890Z,7.28
2023-04-28T10:21:01.106Z,7.88
2023-04-28T10:24:10.095Z,6.80
2023-04-28T10:27:14.958Z,7.45
2023-04-28T10:30:28.308Z,7.07
2023-04-28T10:33:33.819Z,6.20
2023-04-28T10:36:54.875Z,6.15
2023-04-28T10:40:34.900Z,6.18
2023-04-28T10:43:40.263Z,8.63
2023-04-28T10:47:04.530Z,6.90
2023-04-28T10:50:11.287Z,8.40
2023-04-28T10:53:16.261Z,6.63
2023-04-28T10:56:23.552Z,6.75
2023-04-28T10:59:28.538Z,6.18
2023-04-28T11:02:41.090Z,5.78
2023-04-28T11:06:24.960Z,5.72
2023-04-28T11:09:32.460Z,5.75
2023-04-28T11:12:36.960Z,5.55
2023-04-28T11:15:41.822Z,5.75
2023-04-28T11:19:04.824Z,5.60
2023-04-28T11:22:21.880Z,5.40
2023-04-28T11:25:26.285Z,5.80
2023-04-28T11:28:31.029Z,5.40
2023-04-28T11:31:35.789Z,4.93
2023-04-28T11:34:40.521Z,5.32
2023-04-28T11:37:45.519Z,5.20
2023-04-28T11:40:58.148Z,4.82
2023-04-28T11:44:14.964Z,4.75
2023-04-28T11:47:34.340Z,4.05
2023-04-28T11:50:39.156Z,3.45
2023-04-28T11:53:45.313Z,3.75
2023-04-28T11:56:50.588Z,3.70
2023-04-28T12:00:21.802Z,3.88
2023-04-28T12:03:26.847Z,3.42
2023-04-28T12:06:32.381Z,3.28
2023-04-28T12:09:39.646Z,2.97
2023-04-28T12:12:51.772Z,3.42
2023-04-28T12:16:01.328Z,4.32
2023-04-28T12:19:10.055Z,4.38
2023-04-28T12:22:17.602Z,4.28
2023-04-28T12:25:22.118Z,4.40
2023-04-28T12:28:40.971Z,4.15
2023-04-28T12:31:52.823Z,5.20
2023-04-28T12:34:58.136Z,5.00
2023-04-28T12:38:02.887Z,4.68
2023-04-28T12:41:07.949Z,5.78
2023-04-28T12:44:12.376Z,5.72
2023-04-28T12:47:18.475Z,6.47
2023-04-28T12:50:24.290Z,5.40
2023-04-28T12:53:28.889Z,5.40
2023-04-28T12:56:33.983Z,6.47
2023-04-28T12:59:38.279Z,5.53
2023-04-28T13:02:43.331Z,4.15
2023-04-28T13:05:48.365Z,3.72
2023-04-28T13:08:53.749Z,5.10
2023-04-28T13:11:58.711Z,4.80
2023-04-28T13:15:04.142Z,4.53
2023-04-28T13:18:09.596Z,5.00
2023-04-28T13:21:14.602Z,3.40
2023-04-28T13:24:19.628Z,3.63
2023-04-28T13:27:24.626Z,3.92
2023-04-28T13:30:29.577Z,3.78
2023-04-28T13:33:34.458Z,3.35
2023-04-28T13:36:39.413Z,4.03
2023-04-28T13:39:44.423Z,3.95
2023-04-28T13:42:49.058Z,5.15
2023-04-28T13:45:54.037Z,4.30
2023-04-28T13:48:59.010Z,3.85
2023-04-28T13:52:03.845Z,3.30
2023-04-28T13:55:09.651Z,3.50
2023-04-28T13:58:14.245Z,4.45
2023-04-28T14:01:19.164Z,3.83
2023-04-28T14:04:24.140Z,3.78
2023-04-28T14:07:28.716Z,4.00
2023-04-28T14:10:33.312Z,3.65
2023-04-28T14:13:38.417Z,3.65
2023-04-28T14:16:43.070Z,3.60
2023-04-28T14:19:48.214Z,3.92
2023-04-28T14:22:53.282Z,3.45
2023-04-28T14:25:58.362Z,3.35
2023-04-28T14:29:02.949Z,3.30
2023-04-28T14:32:07.837Z,3.85
2023-04-28T14:35:14.024Z,3.00
2023-04-28T14:38:18.692Z,2.65
2023-04-28T14:41:23.613Z,2.80
2023-04-28T14:44:28.490Z,2.03
2023-04-28T14:47:33.949Z,2.55
2023-04-28T14:50:39.094Z,2.28
2023-04-28T14:53:43.816Z,2.45
2023-04-28T14:56:51.985Z,2.42
2023-04-28T14:59:56.548Z,2.85
2023-04-28T15:03:01.571Z,2.20
2023-04-28T15:06:06.518Z,2.88
2023-04-28T15:09:11.877Z,2.50
2023-04-28T15:12:17.036Z,2.50
2023-04-28T15:15:21.909Z,2.28
2023-04-28T15:18:26.370Z,2.85
2023-04-28T15:21:31.217Z,2.45
2023-04-28T15:24:35.863Z,2.47
2023-04-28T15:27:40.750Z,2.15
2023-04-28T15:30:45.596Z,2.45
2023-04-28T15:33:50.470Z,2.00
2023-04-28T15:36:55.614Z,2.10
2023-04-28T15:39:59.878Z,1.95
2023-04-28T15:43:04.622Z,2.00
2023-04-28T15:46:11.017Z,2.60
2023-04-28T15:49:15.616Z,2.53
2023-04-28T15:52:20.251Z,2.20
2023-04-28T15:55:25.348Z,2.22
2023-04-28T15:58:31.240Z,2.30
2023-04-28T16:02:00.319Z,2.50
2023-04-28T16:05:05.257Z,3.20
2023-04-28T16:08:10.096Z,2.88
2023-04-28T16:11:17.924Z,2.60
2023-04-28T16:14:22.475Z,3.08
2023-04-28T16:17:29.168Z,2.75
2023-04-28T16:20:33.775Z,2.97
2023-04-28T16:23:38.863Z,3.10
2023-04-28T16:26:43.847Z,3.38
2023-04-28T16:29:48.454Z,2.60
2023-04-28T16:32:53.380Z,3.00
2023-04-28T16:35:59.697Z,2.63
2023-04-28T16:39:04.380Z,2.65
2023-04-28T16:42:09.332Z,2.20
2023-04-28T16:45:14.309Z,3.80
2023-04-28T16:48:20.538Z,3.22
2023-04-28T16:51:25.209Z,2.60
2023-04-28T16:54:31.394Z,2.60
2023-04-28T16:57:36.376Z,2.53
2023-04-28T17:00:40.991Z,2.50
2023-04-28T17:03:46.338Z,3.15
2023-04-28T17:06:52.014Z,3.08
2023-04-28T17:09:56.771Z,3.30
2023-04-28T17:13:01.777Z,3.40
2023-04-28T17:16:06.780Z,3.92
2023-04-28T17:19:12.682Z,4.45
2023-04-28T17:22:17.697Z,5.15
2023-04-28T17:25:23.900Z,4.47
2023-04-28T17:28:28.710Z,4.80
2023-04-28T17:31:33.881Z,4.60
2023-04-28T17:34:38.143Z,5.55
2023-04-28T17:37:42.983Z,4.80
2023-04-28T17:40:48.683Z,4.85
2023-04-28T17:43:53.854Z,5.75
2023-04-28T17:46:58.714Z,6.25
2023-04-28T17:50:03.564Z,4.90
2023-04-28T17:53:08.049Z,4.63
2023-04-28T17:56:12.828Z,5.10
2023-04-28T17:59:18.383Z,4.65
2023-04-28T18:02:23.410Z,4.13
2023-04-28T18:05:29.282Z,3.97
2023-04-28T18:08:35.628Z,3.15
2023-04-28T18:11:40.510Z,3.13
2023-04-28T18:14:45.504Z,3.28
2023-04-28T18:17:50.119Z,2.47
2023-04-28T18:20:59.191Z,2.53
2023-04-28T18:24:03.793Z,2.40
2023-04-28T18:27:09.245Z,1.98
2023-04-28T18:30:14.320Z,2.00
2023-04-28T18:33:22.158Z,2.15
2023-04-28T18:36:27.960Z,2.00
2023-04-28T18:39:32.779Z,1.90
2023-04-28T18:42:37.981Z,2.20
2023-04-28T18:45:44.165Z,2.30
2023-04-28T18:48:49.469Z,1.90
2023-04-28T18:51:55.445Z,2.00
2023-04-28T18:55:00.665Z,2.50
2023-04-28T18:58:05.606Z,2.30
2023-04-28T19:01:15.657Z,2.08
2023-04-28T19:04:21.630Z,2.05
2023-04-28T19:07:26.473Z,1.70
2023-04-28T19:10:31.084Z,2.08
2023-04-28T19:13:36.774Z,2.30
2023-04-28T19:16:42.348Z,1.83
2023-04-28T19:19:47.475Z,2.10
2023-04-28T19:22:52.835Z,2.03
2023-04-28T19:25:59.086Z,2.35
2023-04-28T19:29:03.591Z,2.38
2023-04-28T19:32:09.945Z,2.58
2023-04-28T19:35:15.782Z,2.65
2023-04-28T19:38:22.866Z,2.33
2023-04-28T19:41:27.906Z,2.92
2023-04-28T19:44:33.682Z,3.60
2023-04-28T19:47:40.077Z,3.35
2023-04-28T19:50:44.819Z,4.13
2023-04-28T19:53:51.040Z,4.00
2023-04-28T19:56:55.827Z,4.13
2023-04-28T20:00:00.778Z,5.45
2023-04-28T20:03:05.493Z,5.47
2023-04-28T20:06:17.385Z,5.55
2023-04-28T20:09:22.110Z,5.80
2023-04-28T20:12:26.738Z,5.40
2023-04-28T20:15:31.469Z,4.97
2023-04-28T20:18:37.457Z,5.38
2023-04-28T20:21:42.403Z,6.07
2023-04-28T20:24:47.374Z,6.10
2023-04-28T20:27:52.121Z,6.00
2023-04-28T20:30:56.637Z,6.13
2023-04-28T20:34:01.546Z,5.20
2023-04-28T20:37:06.824Z,6.57
2023-04-28T20:40:12.130Z,6.18
2023-04-28T20:43:17.222Z,6.97
2023-04-28T20:46:22.520Z,7.10
2023-04-28T20:49:28.419Z,7.63
2023-04-28T20:52:32.825Z,6.95
2023-04-28T20:55:37.312Z,7.20
2023-04-28T20:58:42.558Z,7.30
2023-04-28T21:01:47.470Z,8.30
2023-04-28T21:04:52.275Z,8.82
2023-04-28T21:07:57.019Z,9.85
2023-04-28T21:11:01.277Z,11.40
2023-04-28T21:14:05.634Z,10.98
2023-04-28T21:17:10.224Z,9.15
2023-04-28T21:20:14.997Z,11.75
2023-04-28T21:23:19.683Z,11.10
2023-04-28T21:26:24.082Z,10.43
2023-04-28T21:29:28.990Z,10.07
2023-04-28T21:32:33.832Z,9.73
2023-04-28T21:35:38.569Z,10.20
2023-04-28T21:38:43.062Z,10.60
2023-04-28T21:41:47.360Z,14.00
2023-04-28T21:44:52.232Z,14.40
2023-04-28T21:47:58.274Z,20.33
2023-04-28T21:51:03.340Z,18.13
2023-04-28T21:54:09.382Z,17.90
2023-04-28T21:57:15.838Z,15.73
2023-04-28T22:00:22.814Z,22.40
2023-04-28T22:03:28.911Z,21.27
2023-04-28T22:06:33.541Z,19.65
2023-04-28T22:09:38.133Z,18.83
2023-04-28T22:12:42.648Z,20.35
2023-04-28T22:15:47.026Z,17.55
2023-04-28T22:18:51.878Z,19.83
2023-04-28T22:21:56.838Z,18.38
2023-04-28T22:25:01.683Z,20.58
2023-04-28T22:28:07.196Z,18.10
2023-04-28T22:31:11.891Z,20.45
2023-04-28T22:34:16.873Z,18.67
2023-04-28T22:37:21.808Z,18.95
2023-04-28T22:40:27.538Z,15.45
2023-04-28T22:43:32.329Z,21.65
2023-04-28T22:46:36.730Z,19.60
2023-04-28T22:49:41.127Z,20.63
2023-04-28T22:52:45.471Z,20.08
2023-04-28T22:55:50.919Z,17.17
2023-04-28T22:58:55.698Z,15.48
2023-04-28T23:02:00.357Z,14.35
2023-04-28T23:05:05.341Z,13.23
2023-04-28T23:08:09.908Z,12.50
2023-04-28T23:11:14.721Z,13.23
2023-04-28T23:14:19.524Z,12.60
2023-04-28T23:17:24.822Z,12.50
2023-04-28T23:20:29.414Z,11.85
2023-04-28T23:23:34.291Z,11.00
2023-04-28T23:26:39.748Z,11.02
2023-04-28T23:29:44.168Z,10.85
2023-04-28T23:32:49.029Z,10.43
2023-04-28T23:35:53.871Z,10.45
2023-04-28T23:38:58.286Z,11.20
2023-04-28T23:42:03.518Z,12.35
2023-04-28T23:45:09.801Z,11.48
2023-04-28T23:48:14.409Z,10.77
2023-04-28T23:51:18.970Z,11.05
2023-04-28T23:54:23.583Z,10.45
2023-04-28T23:57:27.877Z,11.98
